createdAt,value
2022-12-04T00:00:45.368Z,3.11
2022-12-04T00:01:45.374Z,3.09
2022-12-04T00:02:45.467Z,3.09
2022-12-04T00:03:45.433Z,3.1
2022-12-04T00:04:45.883Z,3.1
2022-12-04T00:05:45.412Z,3.12
2022-12-04T00:06:45.420Z,3.13
2022-12-04T00:07:45.440Z,3.13
2022-12-04T00:08:45.293Z,3.2
2022-12-04T00:09:45.629Z,3.21
2022-12-04T00:10:45.271Z,3.18
2022-12-04T00:11:45.263Z,3.17
2022-12-04T00:12:45.715Z,3.23
2022-12-04T00:13:45.345Z,3.29
2022-12-04T00:15:23.846Z,3.23
2022-12-04T00:15:45.280Z,3.17
2022-12-04T00:16:45.550Z,3.18
2022-12-04T00:17:45.282Z,3.24
2022-12-04T00:18:45.303Z,3.31
2022-12-04T00:19:45.637Z,3.33
2022-12-04T00:20:48.296Z,3.27
2022-12-04T00:21:45.455Z,3.25
2022-12-04T00:22:45.371Z,3.3
2022-12-04T00:23:45.373Z,3.34
2022-12-04T00:24:45.883Z,3.28
2022-12-04T00:25:47.718Z,3.2
2022-12-04T00:26:45.360Z,3.14
2022-12-04T00:27:45.708Z,3.1
2022-12-04T00:28:45.493Z,3.13
2022-12-04T00:29:45.764Z,3.14
2022-12-04T00:30:45.361Z,3.16
2022-12-04T00:31:48.381Z,3.21
2022-12-04T00:32:45.379Z,3.23
2022-12-04T00:33:45.357Z,3.27
2022-12-04T00:34:45.706Z,3.2
2022-12-04T00:35:45.338Z,3.19
2022-12-04T00:36:45.271Z,3.18
2022-12-04T00:37:45.443Z,3.19
2022-12-04T00:38:45.289Z,3.22
2022-12-04T00:39:45.710Z,3.3
2022-12-04T00:40:45.384Z,3.33
2022-12-04T00:41:45.377Z,3.33
2022-12-04T00:42:48.686Z,3.32
2022-12-04T00:43:45.377Z,3.34
2022-12-04T00:44:45.800Z,3.33
2022-12-04T00:45:45.440Z,3.36
2022-12-04T00:46:45.282Z,3.4
2022-12-04T00:47:45.471Z,3.44
2022-12-04T00:48:48.389Z,3.42
2022-12-04T00:49:45.712Z,3.4
2022-12-04T00:50:45.365Z,3.41
2022-12-04T00:51:45.281Z,3.4
2022-12-04T00:52:45.299Z,3.37
2022-12-04T00:53:45.429Z,3.36
2022-12-04T00:54:45.648Z,3.36
2022-12-04T00:55:45.400Z,3.33
2022-12-04T00:56:45.456Z,3.32
2022-12-04T00:57:45.768Z,3.32
2022-12-04T00:58:45.502Z,3.34
2022-12-04T00:59:51.327Z,3.34
2022-12-04T01:00:45.397Z,3.34
2022-12-04T01:01:45.442Z,3.34
2022-12-04T01:02:45.345Z,3.38
2022-12-04T01:03:45.397Z,3.37
2022-12-04T01:04:45.694Z,3.36
2022-12-04T01:05:45.368Z,3.38
2022-12-04T01:06:45.286Z,3.42
2022-12-04T01:07:45.385Z,3.45
2022-12-04T01:08:45.411Z,3.42
2022-12-04T01:09:45.721Z,3.39
2022-12-04T01:10:45.442Z,3.34
2022-12-04T01:11:45.264Z,3.32
2022-12-04T01:12:45.714Z,3.3
2022-12-04T01:13:45.334Z,3.26
2022-12-04T01:14:45.756Z,3.22
2022-12-04T01:15:45.441Z,3.22
2022-12-04T01:16:45.465Z,3.23
2022-12-04T01:17:45.303Z,3.22
2022-12-04T01:18:45.268Z,3.25
2022-12-04T01:19:45.746Z,3.29
2022-12-04T01:20:48.280Z,3.37
2022-12-04T01:21:45.384Z,3.46
2022-12-04T01:22:45.401Z,3.5
2022-12-04T01:23:45.436Z,3.48
2022-12-04T01:24:45.888Z,3.5
2022-12-04T01:25:45.331Z,3.48
2022-12-04T01:26:45.283Z,3.46
2022-12-04T01:27:45.711Z,3.46
2022-12-04T01:28:45.344Z,3.37
2022-12-04T01:29:45.712Z,3.32
2022-12-04T01:30:45.342Z,3.31
2022-12-04T01:31:48.316Z,3.25
2022-12-04T01:32:45.318Z,3.2
2022-12-04T01:33:45.286Z,3.12
2022-12-04T01:34:45.763Z,3.05
2022-12-04T01:35:45.352Z,3.05
2022-12-04T01:36:45.374Z,3.07
2022-12-04T01:37:45.396Z,3.07
2022-12-04T01:38:45.279Z,3.09
2022-12-04T01:39:45.702Z,3.09
2022-12-04T01:40:45.386Z,3.13
2022-12-04T01:41:45.259Z,3.2
2022-12-04T01:42:48.668Z,3.18
2022-12-04T01:43:45.369Z,3.15
2022-12-04T01:44:45.801Z,3.11
2022-12-04T01:45:45.528Z,3.06
2022-12-04T01:46:45.258Z,3.03
2022-12-04T01:47:45.344Z,3.02
2022-12-04T01:48:45.420Z,3.03
2022-12-04T01:49:45.647Z,3.04
2022-12-04T01:50:45.370Z,3.04
2022-12-04T01:51:45.280Z,3.02
2022-12-04T01:52:45.455Z,2.98
2022-12-04T01:53:48.296Z,2.97
2022-12-04T01:54:45.640Z,2.99
2022-12-04T01:55:45.353Z,3.05
2022-12-04T01:56:45.374Z,3.08
2022-12-04T01:57:45.742Z,3.06
2022-12-04T01:58:45.456Z,3.04
2022-12-04T01:59:51.353Z,3.05
2022-12-04T02:00:48.525Z,3.08
2022-12-04T02:01:45.325Z,3.07
2022-12-04T02:02:45.388Z,3.05
2022-12-04T02:03:45.427Z,3.05
2022-12-04T02:04:45.750Z,3.05
2022-12-04T02:05:45.377Z,3.06
2022-12-04T02:06:45.389Z,3.08
2022-12-04T02:07:45.354Z,3.16
2022-12-04T02:08:45.290Z,3.19
2022-12-04T02:09:45.713Z,3.23
2022-12-04T02:10:45.359Z,3.28
2022-12-04T02:11:45.300Z,3.23
2022-12-04T02:12:45.711Z,3.2
2022-12-04T02:13:45.373Z,3.14
2022-12-04T02:14:45.635Z,3.11
2022-12-04T02:15:45.377Z,3.08
2022-12-04T02:16:45.423Z,3.1
2022-12-04T02:17:45.399Z,3.11
2022-12-04T02:18:45.350Z,3.07
2022-12-04T02:19:45.711Z,3.05
2022-12-04T02:20:48.348Z,3.04
2022-12-04T02:21:45.260Z,3.04
2022-12-04T02:22:45.264Z,3.06
2022-12-04T02:23:45.338Z,3.08
2022-12-04T02:24:49.765Z,3.1
2022-12-04T02:25:45.354Z,3.08
2022-12-04T02:26:45.308Z,3.05
2022-12-04T02:27:45.710Z,3.03
2022-12-04T02:28:45.472Z,3.01
2022-12-04T02:29:45.791Z,2.99
2022-12-04T02:30:45.616Z,2.99
2022-12-04T02:31:45.279Z,2.98
2022-12-04T02:32:45.293Z,3.03
2022-12-04T02:33:45.264Z,3.03
2022-12-04T02:34:45.755Z,3.03
2022-12-04T02:35:45.346Z,2.97
2022-12-04T02:36:48.407Z,2.96
2022-12-04T02:37:45.510Z,3.06
2022-12-04T02:38:45.410Z,3.14
2022-12-04T02:39:45.711Z,3.22
2022-12-04T02:40:45.497Z,3.26
2022-12-04T02:41:45.435Z,3.3
2022-12-04T02:42:45.651Z,3.33
2022-12-04T02:43:45.406Z,3.35
2022-12-04T02:44:45.753Z,3.4
2022-12-04T02:45:45.408Z,3.45
2022-12-04T02:46:45.268Z,3.43
2022-12-04T02:47:48.274Z,3.39
2022-12-04T02:48:45.436Z,3.41
2022-12-04T02:49:45.756Z,3.37
2022-12-04T02:50:45.376Z,3.34
2022-12-04T02:51:45.409Z,3.35
2022-12-04T02:52:45.473Z,3.37
2022-12-04T02:53:45.384Z,3.37
2022-12-04T02:54:45.737Z,3.35
2022-12-04T02:55:45.479Z,3.28
2022-12-04T02:56:45.430Z,3.26
2022-12-04T02:57:45.709Z,3.2
2022-12-04T02:58:48.336Z,3.16
2022-12-04T02:59:45.638Z,3.15
2022-12-04T03:00:45.339Z,3.14
2022-12-04T03:01:45.462Z,3.11
2022-12-04T03:02:45.469Z,3.09
2022-12-04T03:03:45.283Z,3.08
2022-12-04T03:04:45.637Z,3.07
2022-12-04T03:05:45.346Z,3.05
2022-12-04T03:06:45.280Z,3.05
2022-12-04T03:07:45.479Z,3.06
2022-12-04T03:08:45.423Z,3.05
2022-12-04T03:09:45.657Z,3.08
2022-12-04T03:10:45.379Z,3.08
2022-12-04T03:11:45.246Z,3.15
2022-12-04T03:12:45.705Z,3.22
2022-12-04T03:13:45.345Z,3.19
2022-12-04T03:14:51.291Z,3.15
2022-12-04T03:15:45.472Z,3.17
2022-12-04T03:16:46.663Z,3.25
2022-12-04T03:17:45.439Z,3.28
2022-12-04T03:18:45.376Z,3.32
2022-12-04T03:19:45.709Z,3.35
2022-12-04T03:20:45.335Z,3.33
2022-12-04T03:21:45.396Z,3.32
2022-12-04T03:22:45.266Z,3.27
2022-12-04T03:23:45.382Z,3.3
2022-12-04T03:24:45.704Z,3.38
2022-12-04T03:25:48.388Z,3.4
2022-12-04T03:26:45.475Z,3.37
2022-12-04T03:27:45.640Z,3.33
2022-12-04T03:28:45.284Z,3.33
2022-12-04T03:29:45.303Z,3.33
2022-12-04T03:30:45.496Z,3.34
2022-12-04T03:31:45.390Z,3.35
2022-12-04T03:32:45.350Z,3.37
2022-12-04T03:33:45.281Z,3.38
2022-12-04T03:34:45.754Z,3.3
2022-12-04T03:35:45.381Z,3.21
2022-12-04T03:36:48.275Z,3.16
2022-12-04T03:37:45.387Z,3.15
2022-12-04T03:38:45.358Z,3.15
2022-12-04T03:39:45.697Z,3.11
2022-12-04T03:40:45.287Z,3.06
2022-12-04T03:41:49.784Z,3.09
2022-12-04T03:42:45.640Z,3.16
2022-12-04T03:43:45.280Z,3.1
2022-12-04T03:44:45.636Z,3.05
2022-12-04T03:45:45.333Z,3.03
2022-12-04T03:46:45.282Z,3.04
2022-12-04T03:47:48.399Z,3.01
2022-12-04T03:48:45.379Z,3.03
2022-12-04T03:49:45.716Z,3
2022-12-04T03:50:45.459Z,2.93
2022-12-04T03:51:45.458Z,2.86
2022-12-04T03:52:45.288Z,2.82
2022-12-04T03:53:45.278Z,2.83
2022-12-04T03:54:45.803Z,2.82
2022-12-04T03:55:45.383Z,2.79
2022-12-04T03:56:45.271Z,2.8
2022-12-04T03:57:45.638Z,2.78
2022-12-04T03:58:48.379Z,2.76
2022-12-04T03:59:45.639Z,2.77
2022-12-04T04:00:45.423Z,2.79
2022-12-04T04:01:45.531Z,2.82
2022-12-04T04:02:45.464Z,2.82
2022-12-04T04:03:45.281Z,2.82
2022-12-04T04:04:45.668Z,2.84
2022-12-04T04:05:45.394Z,2.87
2022-12-04T04:06:45.462Z,2.86
2022-12-04T04:07:45.400Z,2.81
2022-12-04T04:08:45.283Z,2.79
2022-12-04T04:09:45.705Z,2.8
2022-12-04T04:10:45.290Z,2.83
2022-12-04T04:11:45.365Z,2.87
2022-12-04T04:12:45.641Z,2.86
2022-12-04T04:13:45.459Z,2.83
2022-12-04T04:14:51.325Z,2.82
2022-12-04T04:15:45.447Z,2.83
2022-12-04T04:16:45.407Z,2.83
2022-12-04T04:17:45.409Z,2.84
2022-12-04T04:18:45.270Z,2.92
2022-12-04T04:19:45.713Z,3.02
2022-12-04T04:20:45.259Z,3.05
2022-12-04T04:21:45.277Z,2.98
2022-12-04T04:22:45.289Z,2.93
2022-12-04T04:23:45.381Z,2.9
2022-12-04T04:24:45.636Z,2.89
2022-12-04T04:25:48.280Z,2.88
2022-12-04T04:26:45.348Z,2.89
2022-12-04T04:27:45.705Z,2.87
2022-12-04T04:28:45.388Z,2.87
2022-12-04T04:29:52.103Z,2.88
2022-12-04T04:30:45.399Z,2.88
2022-12-04T04:31:45.249Z,2.9
2022-12-04T04:32:45.423Z,2.93
2022-12-04T04:33:45.501Z,2.94
2022-12-04T04:34:45.705Z,2.88
2022-12-04T04:35:45.259Z,2.87
2022-12-04T04:36:48.275Z,2.83
2022-12-04T04:37:45.481Z,2.8
2022-12-04T04:38:45.363Z,2.79
2022-12-04T04:39:45.710Z,2.81
2022-12-04T04:40:45.346Z,2.82
2022-12-04T04:41:45.344Z,2.81
2022-12-04T04:42:51.280Z,2.81
2022-12-04T04:43:45.432Z,2.83
2022-12-04T04:44:45.741Z,2.82
2022-12-04T04:45:45.488Z,2.82
2022-12-04T04:46:45.549Z,2.88
2022-12-04T04:47:45.262Z,2.86
2022-12-04T04:48:45.269Z,2.81
2022-12-04T04:49:45.710Z,2.81
2022-12-04T04:50:45.374Z,2.85
2022-12-04T04:51:45.270Z,2.92
2022-12-04T04:52:45.399Z,2.91
2022-12-04T04:53:48.262Z,2.88
2022-12-04T04:54:45.631Z,2.89
2022-12-04T04:55:45.405Z,2.9
2022-12-04T04:56:45.512Z,2.87
2022-12-04T04:57:45.433Z,2.88
2022-12-04T04:58:45.408Z,2.87
2022-12-04T04:59:45.691Z,2.89
2022-12-04T05:00:45.283Z,2.88
2022-12-04T05:01:45.449Z,2.86
2022-12-04T05:02:45.458Z,2.81
2022-12-04T05:03:45.492Z,2.78
2022-12-04T05:04:51.360Z,2.78
2022-12-04T05:05:45.340Z,2.77
2022-12-04T05:06:45.395Z,2.78
2022-12-04T05:07:45.532Z,2.79
2022-12-04T05:08:45.420Z,2.8
2022-12-04T05:09:45.641Z,2.77
2022-12-04T05:10:45.297Z,2.74
2022-12-04T05:11:45.269Z,2.72
2022-12-04T05:12:45.713Z,2.71
2022-12-04T05:13:45.477Z,2.74
2022-12-04T05:14:45.642Z,2.74
2022-12-04T05:15:48.300Z,2.75
2022-12-04T05:16:45.398Z,2.78
2022-12-04T05:17:45.376Z,2.79
2022-12-04T05:18:45.483Z,2.79
2022-12-04T05:19:45.716Z,2.77
2022-12-04T05:20:45.488Z,2.78
2022-12-04T05:21:45.382Z,2.76
2022-12-04T05:22:45.273Z,2.73
2022-12-04T05:23:45.378Z,2.74
2022-12-04T05:24:45.377Z,2.77
2022-12-04T05:25:45.284Z,2.8
2022-12-04T05:26:45.266Z,2.83
2022-12-04T05:27:45.461Z,2.81
2022-12-04T05:28:45.404Z,2.83
2022-12-04T05:29:45.680Z,2.88
2022-12-04T05:30:45.347Z,2.82
2022-12-04T05:31:48.503Z,2.8
2022-12-04T05:32:45.340Z,2.82
2022-12-04T05:33:45.267Z,2.79
2022-12-04T05:34:45.713Z,2.78
2022-12-04T05:35:45.356Z,2.79
2022-12-04T05:36:45.287Z,2.71
2022-12-04T05:37:48.275Z,2.62
2022-12-04T05:38:45.356Z,2.6
2022-12-04T05:39:45.768Z,2.62
2022-12-04T05:40:45.460Z,2.6
2022-12-04T05:41:45.361Z,2.59
2022-12-04T05:42:45.632Z,2.63
2022-12-04T05:43:45.383Z,2.63
2022-12-04T05:44:45.706Z,2.64
2022-12-04T05:45:45.384Z,2.65
2022-12-04T05:46:45.394Z,2.63
2022-12-04T05:47:45.278Z,2.64
2022-12-04T05:48:48.297Z,2.65
2022-12-04T05:49:45.647Z,2.62
2022-12-04T05:50:45.385Z,2.58
2022-12-04T05:51:45.357Z,2.54
2022-12-04T05:52:45.276Z,2.52
2022-12-04T05:53:45.448Z,2.53
2022-12-04T05:54:45.644Z,2.56
2022-12-04T05:55:45.264Z,2.55
2022-12-04T05:56:45.430Z,2.57
2022-12-04T05:57:45.649Z,2.56
2022-12-04T05:58:45.477Z,2.56
2022-12-04T05:59:45.629Z,2.52
2022-12-04T06:00:45.277Z,2.47
2022-12-04T06:01:45.426Z,2.43
2022-12-04T06:02:45.480Z,2.42
2022-12-04T06:03:45.363Z,2.44
2022-12-04T06:04:51.284Z,2.43
2022-12-04T06:05:45.378Z,2.43
2022-12-04T06:06:45.357Z,2.41
2022-12-04T06:07:45.570Z,2.4
2022-12-04T06:08:45.265Z,2.39
2022-12-04T06:09:45.642Z,2.4
2022-12-04T06:10:45.266Z,2.41
2022-12-04T06:11:45.375Z,2.45
2022-12-04T06:12:45.715Z,2.46
2022-12-04T06:13:45.459Z,2.48
2022-12-04T06:14:45.714Z,2.46
2022-12-04T06:15:48.301Z,2.43
2022-12-04T06:16:45.604Z,2.39
2022-12-04T06:17:45.462Z,2.37
2022-12-04T06:18:45.507Z,2.38
2022-12-04T06:19:45.840Z,2.37
2022-12-04T06:20:45.455Z,2.34
2022-12-04T06:21:45.281Z,2.37
2022-12-04T06:22:45.276Z,2.38
2022-12-04T06:23:45.430Z,2.4
2022-12-04T06:24:45.648Z,2.42
2022-12-04T06:25:45.359Z,2.47
2022-12-04T06:27:25.132Z,2.54
2022-12-04T06:27:45.633Z,2.51
2022-12-04T06:28:45.413Z,2.47
2022-12-04T06:29:45.644Z,2.48
2022-12-04T06:30:45.366Z,2.46
2022-12-04T06:31:45.467Z,2.45
2022-12-04T06:32:45.357Z,2.45
2022-12-04T06:33:45.372Z,2.48
2022-12-04T06:34:45.711Z,2.51
2022-12-04T06:35:45.452Z,2.54
2022-12-04T06:36:45.390Z,2.5
2022-12-04T06:37:48.267Z,2.42
2022-12-04T06:38:45.455Z,2.38
2022-12-04T06:39:45.629Z,2.39
2022-12-04T06:40:45.372Z,2.4
2022-12-04T06:41:45.258Z,2.42
2022-12-04T06:42:45.714Z,2.43
2022-12-04T06:43:45.390Z,2.44
2022-12-04T06:44:45.639Z,2.41
2022-12-04T06:45:45.578Z,2.44
2022-12-04T06:46:47.173Z,2.45
2022-12-04T06:47:45.375Z,2.48
2022-12-04T06:48:48.449Z,2.53
2022-12-04T06:49:45.682Z,2.56
2022-12-04T06:50:45.373Z,2.57
2022-12-04T06:51:45.289Z,2.52
2022-12-04T06:52:45.401Z,2.49
2022-12-04T06:53:45.421Z,2.47
2022-12-04T06:54:45.642Z,2.46
2022-12-04T06:55:45.318Z,2.48
2022-12-04T06:56:45.375Z,2.46
2022-12-04T06:57:45.684Z,2.48
2022-12-04T06:58:45.472Z,2.47
2022-12-04T06:59:51.322Z,2.52
2022-12-04T07:00:45.527Z,2.48
2022-12-04T07:01:45.283Z,2.51
2022-12-04T07:02:45.408Z,2.57
2022-12-04T07:03:51.052Z,2.6
2022-12-04T07:04:45.715Z,2.6
2022-12-04T07:05:45.277Z,2.63
2022-12-04T07:06:45.278Z,2.62
2022-12-04T07:07:45.471Z,2.6
2022-12-04T07:08:45.476Z,2.61
2022-12-04T07:09:45.470Z,2.67
2022-12-04T07:10:48.279Z,2.64
2022-12-04T07:11:45.382Z,2.63
2022-12-04T07:12:45.706Z,2.63
2022-12-04T07:13:45.488Z,2.66
2022-12-04T07:14:45.639Z,2.69
2022-12-04T07:15:45.468Z,2.73
2022-12-04T07:16:45.485Z,2.73
2022-12-04T07:17:45.382Z,2.7
2022-12-04T07:18:45.389Z,2.65
2022-12-04T07:19:45.716Z,2.66
2022-12-04T07:20:45.468Z,2.64
2022-12-04T07:21:48.407Z,2.59
2022-12-04T07:22:45.365Z,2.49
2022-12-04T07:23:45.391Z,2.47
2022-12-04T07:24:45.636Z,2.45
2022-12-04T07:25:45.347Z,2.45
2022-12-04T07:26:45.283Z,2.52
2022-12-04T07:27:45.647Z,2.58
2022-12-04T07:28:45.285Z,2.59
2022-12-04T07:29:45.711Z,2.59
2022-12-04T07:30:45.455Z,2.62
2022-12-04T07:31:45.533Z,2.6
2022-12-04T07:32:48.413Z,2.56
2022-12-04T07:33:45.364Z,2.59
2022-12-04T07:34:45.402Z,2.61
2022-12-04T07:35:45.486Z,2.62
2022-12-04T07:36:45.324Z,2.58
2022-12-04T07:37:45.408Z,2.52
2022-12-04T07:38:45.405Z,2.48
2022-12-04T07:39:45.763Z,2.43
2022-12-04T07:40:47.981Z,2.45
2022-12-04T07:41:45.442Z,2.49
2022-12-04T07:42:45.773Z,2.56
2022-12-04T07:43:48.273Z,2.53
2022-12-04T07:44:45.381Z,2.49
2022-12-04T07:45:45.327Z,2.48
2022-12-04T07:46:45.274Z,2.5
2022-12-04T07:47:45.404Z,2.5
2022-12-04T07:48:45.524Z,2.5
2022-12-04T07:49:45.435Z,2.58
2022-12-04T07:50:45.278Z,2.62
2022-12-04T07:51:45.383Z,2.67
2022-12-04T07:52:45.357Z,2.71
2022-12-04T07:53:45.285Z,2.74
2022-12-04T07:54:48.400Z,2.72
2022-12-04T07:55:45.454Z,2.69
2022-12-04T07:56:45.498Z,2.7
2022-12-04T07:57:45.509Z,2.71
2022-12-04T07:58:45.446Z,2.73
2022-12-04T07:59:45.409Z,2.69
2022-12-04T08:00:45.397Z,2.68
2022-12-04T08:01:45.345Z,2.7
2022-12-04T08:02:45.343Z,2.79
2022-12-04T08:03:48.076Z,2.83
2022-12-04T08:04:45.318Z,2.81
2022-12-04T08:05:48.365Z,2.84
2022-12-04T08:06:45.347Z,2.89
2022-12-04T08:07:45.315Z,2.9
2022-12-04T08:08:45.508Z,2.85
2022-12-04T08:09:45.468Z,2.82
2022-12-04T08:10:45.412Z,2.81
2022-12-04T08:11:47.403Z,2.84
2022-12-04T08:12:45.644Z,2.89
2022-12-04T08:13:45.366Z,2.95
2022-12-04T08:14:45.705Z,2.93
2022-12-04T08:15:45.294Z,2.9
2022-12-04T08:16:52.499Z,2.88
2022-12-04T08:17:45.372Z,2.81
2022-12-04T08:18:45.376Z,2.82
2022-12-04T08:19:45.307Z,2.86
2022-12-04T08:20:45.380Z,2.91
2022-12-04T08:21:45.396Z,2.93
2022-12-04T08:22:48.322Z,2.97
2022-12-04T08:23:45.436Z,3.04
2022-12-04T08:24:45.640Z,3.12
2022-12-04T08:25:45.275Z,3.08
2022-12-04T08:26:45.268Z,3.11
2022-12-04T08:27:47.537Z,3.15
2022-12-04T08:28:45.409Z,3.17
2022-12-04T08:29:45.709Z,3.12
2022-12-04T08:30:45.509Z,3.1
2022-12-04T08:31:45.396Z,3.12
2022-12-04T08:32:45.475Z,3.17
2022-12-04T08:33:45.375Z,3.22
2022-12-04T08:34:48.748Z,3.21
2022-12-04T08:35:45.484Z,3.19
2022-12-04T08:36:45.407Z,3.23
2022-12-04T08:37:45.369Z,3.23
2022-12-04T08:38:48.322Z,3.17
2022-12-04T08:39:45.633Z,3.14
2022-12-04T08:40:45.254Z,3.15
2022-12-04T08:41:45.251Z,3.21
2022-12-04T08:42:47.315Z,3.24
2022-12-04T08:43:45.337Z,3.25
2022-12-04T08:44:45.639Z,3.17
2022-12-04T08:45:45.283Z,3.18
2022-12-04T08:46:45.421Z,3.16
2022-12-04T08:47:50.684Z,3.15
2022-12-04T08:48:45.397Z,3.17
2022-12-04T08:49:51.320Z,3.17
2022-12-04T08:50:45.442Z,3.2
2022-12-04T08:51:45.271Z,3.2
2022-12-04T08:52:45.403Z,3.18
2022-12-04T08:53:45.263Z,3.15
2022-12-04T08:54:45.762Z,3.1
2022-12-04T08:55:45.387Z,3.04
2022-12-04T08:56:45.282Z,3.03
2022-12-04T08:57:45.645Z,3.06
2022-12-04T08:58:45.456Z,2.99
2022-12-04T08:59:45.642Z,3
2022-12-04T09:00:48.288Z,2.99
2022-12-04T09:01:45.558Z,3.03
2022-12-04T09:02:45.414Z,3.04
2022-12-04T09:03:45.289Z,3
2022-12-04T09:04:45.761Z,2.94
2022-12-04T09:05:45.375Z,2.94
2022-12-04T09:06:48.406Z,3
2022-12-04T09:07:45.423Z,3.09
2022-12-04T09:08:45.402Z,3.06
2022-12-04T09:09:48.340Z,3.02
2022-12-04T09:10:45.372Z,3.01
2022-12-04T09:11:45.345Z,2.93
2022-12-04T09:12:45.648Z,2.95
2022-12-04T09:13:45.393Z,3.07
2022-12-04T09:14:45.720Z,3.13
2022-12-04T09:15:45.535Z,3.02
2022-12-04T09:16:45.447Z,2.98
2022-12-04T09:17:48.251Z,3
2022-12-04T09:18:45.337Z,3.05
2022-12-04T09:19:45.718Z,3.05
2022-12-04T09:20:45.421Z,3.05
2022-12-04T09:21:45.382Z,3.11
2022-12-04T09:23:02.941Z,3.18
2022-12-04T09:23:45.430Z,3.21
2022-12-04T09:24:45.651Z,3.11
2022-12-04T09:25:45.260Z,3.04
2022-12-04T09:26:45.284Z,3.04
2022-12-04T09:27:45.720Z,3.15
2022-12-04T09:28:48.415Z,3.17
2022-12-04T09:29:45.746Z,3.28
2022-12-04T09:30:45.571Z,3.3
2022-12-04T09:31:45.427Z,3.36
2022-12-04T09:32:45.380Z,3.31
2022-12-04T09:33:45.377Z,3.31
2022-12-04T09:34:49.628Z,3.37
2022-12-04T09:35:45.415Z,3.5
2022-12-04T09:36:45.343Z,3.51
2022-12-04T09:37:45.438Z,3.43
2022-12-04T09:38:45.361Z,3.38
2022-12-04T09:39:51.341Z,3.4
2022-12-04T09:40:45.342Z,3.53
2022-12-04T09:41:45.254Z,3.6
2022-12-04T09:42:45.722Z,3.58
2022-12-04T09:43:45.384Z,3.63
2022-12-04T09:44:45.718Z,3.6
2022-12-04T09:45:45.281Z,3.59
2022-12-04T09:46:45.448Z,3.67
2022-12-04T09:47:45.499Z,3.61
2022-12-04T09:48:45.367Z,3.56
2022-12-04T09:49:45.721Z,3.55
2022-12-04T09:50:48.279Z,3.56
2022-12-04T09:51:45.335Z,3.57
2022-12-04T09:52:45.475Z,3.61
2022-12-04T09:53:45.368Z,3.68
2022-12-04T09:54:45.725Z,3.73
2022-12-04T09:55:45.285Z,3.78
2022-12-04T09:56:45.279Z,3.84
2022-12-04T09:57:45.400Z,3.89
2022-12-04T09:58:45.358Z,3.86
2022-12-04T09:59:45.764Z,3.85
2022-12-04T10:00:45.274Z,3.89
2022-12-04T10:01:48.360Z,3.95
2022-12-04T10:02:45.597Z,4
2022-12-04T10:03:45.445Z,4.05
2022-12-04T10:04:45.721Z,3.96
2022-12-04T10:05:45.390Z,3.94
2022-12-04T10:06:45.402Z,4
2022-12-04T10:07:45.820Z,4.1
2022-12-04T10:08:45.436Z,4.18
2022-12-04T10:09:45.647Z,4.17
2022-12-04T10:10:45.479Z,4.15
2022-12-04T10:11:45.354Z,4.1
2022-12-04T10:12:48.536Z,4.17
2022-12-04T10:13:45.362Z,4.17
2022-12-04T10:14:45.771Z,3.99
2022-12-04T10:15:45.420Z,3.93
2022-12-04T10:16:45.261Z,3.88
2022-12-04T10:17:45.360Z,3.8
2022-12-04T10:18:45.383Z,3.71
2022-12-04T10:19:45.707Z,3.65
2022-12-04T10:20:45.393Z,3.59
2022-12-04T10:21:45.402Z,3.56
2022-12-04T10:22:45.439Z,3.56
2022-12-04T10:23:48.258Z,3.56
2022-12-04T10:24:45.372Z,3.55
2022-12-04T10:25:45.265Z,3.54
2022-12-04T10:26:45.368Z,3.59
2022-12-04T10:27:45.902Z,3.63
2022-12-04T10:28:48.323Z,3.67
2022-12-04T10:29:45.846Z,3.75
2022-12-04T10:30:45.593Z,3.68
2022-12-04T10:31:45.386Z,3.67
2022-12-04T10:32:45.267Z,3.67
2022-12-04T10:33:45.362Z,3.71
2022-12-04T10:34:46.070Z,3.76
2022-12-04T10:35:45.422Z,3.83
2022-12-04T10:36:45.497Z,3.88
2022-12-04T10:37:45.285Z,4
2022-12-04T10:38:45.438Z,3.88
2022-12-04T10:39:51.462Z,3.74
2022-12-04T10:40:45.273Z,3.69
2022-12-04T10:41:45.265Z,3.7
2022-12-04T10:42:45.276Z,3.72
2022-12-04T10:43:45.451Z,3.73
2022-12-04T10:44:45.899Z,3.8
2022-12-04T10:45:45.260Z,3.78
2022-12-04T10:46:46.506Z,3.75
2022-12-04T10:47:45.489Z,3.74
2022-12-04T10:48:45.353Z,3.64
2022-12-04T10:49:45.947Z,3.6
2022-12-04T10:50:48.452Z,3.7
2022-12-04T10:51:45.419Z,3.79
2022-12-04T10:52:45.297Z,3.93
2022-12-04T10:53:45.280Z,3.99
2022-12-04T10:54:45.356Z,4.05
2022-12-04T10:55:45.362Z,4.05
2022-12-04T10:56:45.278Z,4
2022-12-04T10:57:45.351Z,3.99
2022-12-04T10:58:45.356Z,3.95
2022-12-04T10:59:45.678Z,4
2022-12-04T11:00:45.421Z,4.08
2022-12-04T11:01:45.387Z,4.03
2022-12-04T11:02:45.545Z,4.05
2022-12-04T11:03:45.365Z,4.16
2022-12-04T11:04:45.386Z,4.15
2022-12-04T11:05:45.298Z,4.11
2022-12-04T11:06:48.293Z,4.16
2022-12-04T11:07:45.427Z,4.13
2022-12-04T11:08:45.393Z,4.02
2022-12-04T11:09:45.665Z,3.95
2022-12-04T11:10:45.359Z,3.94
2022-12-04T11:11:45.327Z,3.93
2022-12-04T11:12:45.421Z,3.97
2022-12-04T11:13:45.283Z,3.9
2022-12-04T11:14:47.313Z,3.9
2022-12-04T11:15:45.420Z,3.92
2022-12-04T11:16:45.338Z,3.97
2022-12-04T11:17:48.277Z,3.98
2022-12-04T11:18:45.372Z,4.01
2022-12-04T11:19:45.387Z,4
2022-12-04T11:20:46.980Z,4
2022-12-04T11:21:45.307Z,3.93
2022-12-04T11:22:45.434Z,3.91
2022-12-04T11:23:45.370Z,3.96
2022-12-04T11:24:45.686Z,4.1
2022-12-04T11:25:45.482Z,4.13
2022-12-04T11:26:45.389Z,4.16
2022-12-04T11:27:45.293Z,4.09
2022-12-04T11:28:48.264Z,4.04
2022-12-04T11:29:45.639Z,4.12
2022-12-04T11:30:45.371Z,4.12
2022-12-04T11:31:45.342Z,4.08
2022-12-04T11:32:45.413Z,4.01
2022-12-04T11:33:45.264Z,3.94
2022-12-04T11:34:51.352Z,3.92
2022-12-04T11:35:45.355Z,3.92
2022-12-04T11:36:45.262Z,3.92
2022-12-04T11:37:45.568Z,3.91
2022-12-04T11:38:45.342Z,3.92
2022-12-04T11:39:45.427Z,3.97
2022-12-04T11:40:45.407Z,4
2022-12-04T11:41:45.253Z,3.99
2022-12-04T11:42:45.439Z,4.02
2022-12-04T11:43:45.356Z,4.06
2022-12-04T11:44:45.302Z,4.12
2022-12-04T11:45:45.389Z,4.08
2022-12-04T11:46:45.437Z,4.06
2022-12-04T11:47:45.427Z,4.07
2022-12-04T11:48:45.478Z,4.07
2022-12-04T11:49:45.642Z,4.03
2022-12-04T11:50:48.318Z,4.03
2022-12-04T11:51:45.452Z,4.01
2022-12-04T11:52:45.381Z,4.01
2022-12-04T11:53:45.288Z,4.08
2022-12-04T11:54:45.716Z,4.18
2022-12-04T11:55:45.352Z,4.3
2022-12-04T11:56:45.367Z,4.25
2022-12-04T11:57:45.712Z,4.22
2022-12-04T11:58:45.361Z,4.19
2022-12-04T11:59:45.716Z,4.13
2022-12-04T12:00:45.423Z,4.11
2022-12-04T12:01:50.992Z,4.13
2022-12-04T12:02:45.683Z,4.18
2022-12-04T12:03:45.519Z,4.18
2022-12-04T12:04:45.279Z,4.13
2022-12-04T12:05:45.285Z,4.08
2022-12-04T12:06:45.414Z,4.09
2022-12-04T12:07:45.313Z,4.14
2022-12-04T12:08:45.281Z,4.17
2022-12-04T12:09:45.451Z,4.09
2022-12-04T12:10:45.308Z,3.97
2022-12-04T12:11:45.258Z,3.91
2022-12-04T12:12:48.297Z,3.9
2022-12-04T12:13:45.513Z,3.89
2022-12-04T12:14:45.452Z,3.95
2022-12-04T12:15:45.308Z,3.99
2022-12-04T12:16:48.325Z,4.01
2022-12-04T12:17:45.395Z,4
2022-12-04T12:18:45.388Z,4.01
2022-12-04T12:19:45.716Z,4.04
2022-12-04T12:20:45.356Z,4.09
2022-12-04T12:21:45.258Z,4.08
2022-12-04T12:22:45.300Z,4.06
2022-12-04T12:23:48.325Z,4.01
2022-12-04T12:24:49.879Z,3.98
2022-12-04T12:25:51.696Z,3.94
2022-12-04T12:26:45.347Z,3.93
2022-12-04T12:27:45.377Z,3.91
2022-12-04T12:28:45.252Z,3.94
2022-12-04T12:29:45.359Z,3.96
2022-12-04T12:30:45.368Z,3.99
2022-12-04T12:31:45.407Z,4.06
2022-12-04T12:32:45.357Z,4.08
2022-12-04T12:33:45.282Z,4.03
2022-12-04T12:34:45.271Z,4.01
2022-12-04T12:35:45.369Z,3.96
2022-12-04T12:36:45.415Z,3.92
2022-12-04T12:37:46.312Z,3.97
2022-12-04T12:38:45.389Z,4.01
2022-12-04T12:39:48.342Z,4.05
2022-12-04T12:40:45.455Z,4.1
2022-12-04T12:41:45.276Z,4.16
2022-12-04T12:42:45.432Z,4.27
2022-12-04T12:43:45.432Z,4.32
2022-12-04T12:44:45.725Z,4.32
2022-12-04T12:45:45.453Z,4.31
2022-12-04T12:46:45.375Z,4.21
2022-12-04T12:47:45.266Z,4.17
2022-12-04T12:48:45.401Z,4.16
2022-12-04T12:49:45.377Z,4.15
2022-12-04T12:50:58.261Z,4.11
2022-12-04T12:51:45.493Z,4.06
2022-12-04T12:52:45.501Z,4.03
2022-12-04T12:53:45.395Z,4.03
2022-12-04T12:54:45.726Z,4.03
2022-12-04T12:55:45.486Z,4.05
2022-12-04T12:56:49.594Z,4.06
2022-12-04T12:57:46.590Z,4.08
2022-12-04T12:58:45.518Z,4.12
2022-12-04T12:59:45.401Z,4.13
2022-12-04T13:00:45.579Z,4.14
2022-12-04T13:01:45.367Z,4.15
2022-12-04T13:02:45.455Z,4.18
2022-12-04T13:03:45.442Z,4.17
2022-12-04T13:04:45.429Z,4.1
2022-12-04T13:05:45.279Z,4.02
2022-12-04T13:06:48.321Z,4
2022-12-04T13:07:45.619Z,3.97
2022-12-04T13:08:49.193Z,4.03
2022-12-04T13:09:45.381Z,4.03
2022-12-04T13:10:45.456Z,4.02
2022-12-04T13:11:45.382Z,3.94
2022-12-04T13:12:45.333Z,3.91
2022-12-04T13:13:45.997Z,3.92
2022-12-04T13:14:49.054Z,3.87
2022-12-04T13:15:45.462Z,3.87
2022-12-04T13:16:45.605Z,3.85
2022-12-04T13:17:48.438Z,3.87
2022-12-04T13:18:45.440Z,3.92
2022-12-04T13:19:45.643Z,3.92
2022-12-04T13:20:45.281Z,3.89
2022-12-04T13:21:45.411Z,3.9
2022-12-04T13:22:45.340Z,3.93